createdAt,value
2019-03-22T00:00:10.347Z,39.95
2019-03-22T00:02:44.471Z,43.02
2019-03-22T00:05:19.081Z,41.53
2019-03-22T00:07:52.895Z,42.05
2019-03-22T00:10:28.629Z,42.00
2019-03-22T00:13:03.455Z,41.83
2019-03-22T00:15:39.798Z,41.08
2019-03-22T00:18:14.572Z,41.28
2019-03-22T00:20:50.656Z,41.90
2019-03-22T00:23:26.099Z,41.35
2019-03-22T00:26:01.145Z,38.48
2019-03-22T00:28:35.950Z,37.70
2019-03-22T00:31:10.709Z,37.42
2019-03-22T00:33:45.931Z,39.05
2019-03-22T00:36:21.463Z,37.10
2019-03-22T00:38:56.678Z,37.45
2019-03-22T00:41:31.399Z,39.58
2019-03-22T00:44:06.774Z,37.28
2019-03-22T00:46:41.422Z,36.25
2019-03-22T00:49:16.435Z,38.33
2019-03-22T00:51:51.018Z,38.23
2019-03-22T00:54:25.995Z,38.73
2019-03-22T00:57:00.520Z,39.03
2019-03-22T00:59:35.048Z,38.02
2019-03-22T01:02:09.797Z,37.88
2019-03-22T01:04:44.894Z,37.67
2019-03-22T01:07:19.380Z,38.50
2019-03-22T01:09:54.489Z,37.20
2019-03-22T01:12:28.972Z,37.25
2019-03-22T01:15:03.512Z,38.20
2019-03-22T01:17:38.545Z,38.38
2019-03-22T01:20:12.385Z,35.75
2019-03-22T01:22:46.799Z,36.90
2019-03-22T01:25:21.686Z,38.60
2019-03-22T01:27:56.358Z,38.70
2019-03-22T01:30:32.726Z,37.55
2019-03-22T01:33:07.431Z,40.08
2019-03-22T01:35:41.816Z,39.53
2019-03-22T01:38:16.454Z,40.12
2019-03-22T01:40:51.509Z,39.55
2019-03-22T01:43:26.333Z,38.53
2019-03-22T01:46:01.503Z,40.88
2019-03-22T01:48:36.431Z,43.90
2019-03-22T01:51:11.423Z,51.83
2019-03-22T01:53:45.755Z,55.50
2019-03-22T01:56:20.444Z,57.78
2019-03-22T01:58:55.311Z,53.52
2019-03-22T02:01:30.341Z,51.68
2019-03-22T02:04:05.008Z,50.05
2019-03-22T02:06:40.119Z,43.23
2019-03-22T02:09:14.334Z,43.05
2019-03-22T02:11:48.883Z,40.65
2019-03-22T02:14:23.797Z,39.60
2019-03-22T02:16:58.933Z,40.52
2019-03-22T02:19:33.743Z,41.95
2019-03-22T02:22:08.515Z,40.20
2019-03-22T02:24:42.990Z,39.95
2019-03-22T02:27:17.953Z,37.88
2019-03-22T02:29:52.268Z,38.42
2019-03-22T02:32:27.009Z,37.35
2019-03-22T02:35:01.008Z,38.10
2019-03-22T02:37:36.124Z,34.98
2019-03-22T02:40:11.876Z,40.10
2019-03-22T02:42:45.888Z,38.13
2019-03-22T02:45:20.539Z,39.55
2019-03-22T02:47:55.095Z,38.33
2019-03-22T02:50:30.538Z,41.90
2019-03-22T02:53:05.844Z,40.60
2019-03-22T02:55:40.762Z,40.03
2019-03-22T02:58:20.963Z,42.08
2019-03-22T03:00:51.627Z,40.70
2019-03-22T03:03:26.275Z,43.00
2019-03-22T03:06:00.404Z,41.08
2019-03-22T03:08:34.936Z,42.33
2019-03-22T03:11:10.067Z,41.02
2019-03-22T03:13:44.594Z,40.23
2019-03-22T03:16:19.429Z,43.75
2019-03-22T03:18:54.358Z,43.15
2019-03-22T03:21:29.270Z,41.50
2019-03-22T03:24:04.087Z,42.62
2019-03-22T03:26:39.231Z,41.98
2019-03-22T03:29:14.493Z,43.50
2019-03-22T03:31:49.225Z,42.67
2019-03-22T03:34:23.625Z,44.50
2019-03-22T03:36:58.456Z,42.43
2019-03-22T03:39:33.462Z,44.98
2019-03-22T03:42:09.179Z,43.28
2019-03-22T03:44:44.193Z,42.48
2019-03-22T03:47:19.568Z,42.75
2019-03-22T03:49:54.476Z,40.98
2019-03-22T03:52:28.678Z,42.88
2019-03-22T03:55:03.776Z,43.08
2019-03-22T03:57:38.752Z,42.80
2019-03-22T04:00:13.384Z,42.43
2019-03-22T04:02:49.136Z,43.90
2019-03-22T04:05:24.065Z,44.05
2019-03-22T04:07:58.331Z,45.23
2019-03-22T04:10:34.033Z,44.23
2019-03-22T04:13:09.064Z,43.83
2019-03-22T04:15:44.114Z,44.95
2019-03-22T04:18:19.177Z,46.13
2019-03-22T04:20:54.257Z,45.43
2019-03-22T04:23:28.931Z,44.27
2019-03-22T04:26:03.413Z,44.75
2019-03-22T04:28:37.949Z,43.52
2019-03-22T04:31:12.804Z,44.27
2019-03-22T04:33:47.154Z,42.73
2019-03-22T04:36:22.369Z,45.03
2019-03-22T04:38:57.149Z,47.33
2019-03-22T04:41:32.227Z,45.05
2019-03-22T04:44:07.037Z,45.88
2019-03-22T04:46:45.424Z,42.90
2019-03-22T04:49:22.510Z,45.98
2019-03-22T04:51:58.975Z,45.52
2019-03-22T04:54:36.180Z,44.18
2019-03-22T04:57:14.119Z,45.65
2019-03-22T04:59:50.741Z,44.93
2019-03-22T05:02:25.675Z,45.75
2019-03-22T05:05:00.810Z,47.13
2019-03-22T05:07:36.825Z,44.70
2019-03-22T05:10:13.667Z,45.23
2019-03-22T05:12:51.473Z,45.83
2019-03-22T05:15:28.247Z,46.40
2019-03-22T05:18:04.013Z,48.13
2019-03-22T05:20:42.508Z,47.23
2019-03-22T05:23:20.073Z,48.52
2019-03-22T05:25:59.521Z,47.13
2019-03-22T05:28:36.320Z,47.05
2019-03-22T05:32:02.458Z,48.45
2019-03-22T05:34:37.102Z,46.98
2019-03-22T05:37:11.702Z,46.80
2019-03-22T05:39:46.435Z,44.48
2019-03-22T05:42:20.610Z,48.05
2019-03-22T05:44:55.196Z,46.90
2019-03-22T05:47:30.246Z,44.83
2019-03-22T05:50:04.833Z,46.15
2019-03-22T05:52:40.079Z,46.58
2019-03-22T05:55:15.192Z,47.40
2019-03-22T05:57:49.717Z,46.48
2019-03-22T06:00:24.769Z,47.15
2019-03-22T06:03:00.774Z,45.43
2019-03-22T06:05:35.555Z,47.78
2019-03-22T06:08:10.060Z,44.40
2019-03-22T06:10:44.713Z,45.88
2019-03-22T06:13:19.159Z,47.00
2019-03-22T06:15:54.059Z,46.50
2019-03-22T06:18:29.077Z,43.58
2019-03-22T06:21:02.917Z,46.28
2019-03-22T06:23:37.815Z,45.80
2019-03-22T06:26:12.774Z,45.85
2019-03-22T06:28:47.733Z,47.03
2019-03-22T06:31:22.228Z,45.55
2019-03-22T06:33:56.874Z,48.28
2019-03-22T06:36:30.980Z,46.23
2019-03-22T06:39:06.924Z,44.80
2019-03-22T06:41:41.550Z,45.48
2019-03-22T06:44:15.945Z,43.85
2019-03-22T06:46:50.616Z,45.90
2019-03-22T06:49:25.755Z,43.00
2019-03-22T06:52:00.998Z,42.43
2019-03-22T06:54:35.927Z,43.40
2019-03-22T06:57:10.395Z,43.23
2019-03-22T06:59:45.293Z,42.53
2019-03-22T07:02:20.013Z,43.55
2019-03-22T07:04:54.926Z,41.68
2019-03-22T07:07:29.135Z,39.85
2019-03-22T07:10:03.968Z,40.78
2019-03-22T07:12:39.002Z,41.02
2019-03-22T07:15:14.655Z,40.60
2019-03-22T07:17:49.209Z,41.77
2019-03-22T07:20:23.800Z,39.15
2019-03-22T07:22:58.836Z,39.03
2019-03-22T07:25:33.768Z,37.55
2019-03-22T07:28:08.373Z,39.60
2019-03-22T07:30:42.899Z,39.70
2019-03-22T07:33:17.305Z,39.55
2019-03-22T07:35:52.362Z,39.50
2019-03-22T07:38:26.559Z,40.90
2019-03-22T07:41:01.123Z,39.92
2019-03-22T07:43:36.043Z,37.88
2019-03-22T07:46:10.313Z,40.00
2019-03-22T07:48:44.705Z,40.12
2019-03-22T07:51:18.485Z,44.20
2019-03-22T07:53:52.954Z,45.73
2019-03-22T07:56:26.823Z,42.78
2019-03-22T07:59:01.019Z,42.17
2019-03-22T08:01:34.632Z,47.30
2019-03-22T08:04:09.370Z,43.55
2019-03-22T08:06:44.735Z,42.60
2019-03-22T08:09:18.130Z,39.92
2019-03-22T08:11:52.216Z,39.05
2019-03-22T08:14:26.220Z,40.08
2019-03-22T08:17:00.286Z,39.92
2019-03-22T08:19:34.214Z,37.70
2019-03-22T08:22:08.225Z,38.23
2019-03-22T08:24:42.344Z,38.05
2019-03-22T08:27:15.614Z,39.35
2019-03-22T08:29:50.305Z,36.83
2019-03-22T08:32:24.226Z,29.95
2019-03-22T08:34:58.855Z,26.25
2019-03-22T08:37:31.715Z,26.45
2019-03-22T08:40:06.304Z,26.25
2019-03-22T08:42:40.139Z,24.35
2019-03-22T08:45:14.061Z,26.65
2019-03-22T08:47:49.572Z,25.43
2019-03-22T08:50:23.514Z,26.02
2019-03-22T08:52:56.396Z,25.82
2019-03-22T08:55:29.738Z,25.23
2019-03-22T08:58:04.794Z,25.08
2019-03-22T09:00:39.871Z,25.50
2019-03-22T09:03:13.934Z,25.57
2019-03-22T09:05:48.227Z,25.88
2019-03-22T09:08:22.352Z,27.00
2019-03-22T09:10:56.160Z,25.17
2019-03-22T09:13:30.045Z,28.23
2019-03-22T09:16:03.842Z,25.20
2019-03-22T09:18:38.537Z,25.75
2019-03-22T09:21:13.394Z,24.70
2019-03-22T09:23:47.492Z,24.32
2019-03-22T09:26:21.296Z,25.08
2019-03-22T09:28:56.245Z,26.82
2019-03-22T09:31:29.385Z,25.72
2019-03-22T09:34:02.552Z,26.73
2019-03-22T09:36:36.464Z,27.37
2019-03-22T09:39:11.658Z,23.57
2019-03-22T09:41:44.892Z,26.65
2019-03-22T09:44:18.623Z,25.17
2019-03-22T09:46:52.648Z,26.00
2019-03-22T09:49:25.933Z,24.30
2019-03-22T09:51:58.734Z,22.70
2019-03-22T09:54:31.548Z,22.55
2019-03-22T09:57:05.870Z,22.00
2019-03-22T09:59:38.635Z,21.02
2019-03-22T10:02:13.109Z,21.48
2019-03-22T10:04:45.813Z,22.95
2019-03-22T10:07:19.799Z,21.93
2019-03-22T10:09:53.188Z,22.82
2019-03-22T10:12:28.392Z,22.48
2019-03-22T10:15:04.216Z,23.87
2019-03-22T10:17:36.963Z,22.40
2019-03-22T10:20:12.277Z,22.85
2019-03-22T10:22:46.147Z,23.32
2019-03-22T10:25:21.190Z,22.10
2019-03-22T10:27:56.250Z,22.73
2019-03-22T10:30:31.012Z,22.60
2019-03-22T10:33:05.372Z,22.62
2019-03-22T10:35:40.806Z,23.65
2019-03-22T10:38:16.795Z,22.42
2019-03-22T10:40:52.731Z,22.75
2019-03-22T10:43:27.458Z,22.80
2019-03-22T10:46:02.550Z,22.85
2019-03-22T10:48:37.065Z,21.93
2019-03-22T10:51:11.177Z,21.90
2019-03-22T10:53:45.779Z,21.27
2019-03-22T10:56:21.023Z,21.50
2019-03-22T10:58:56.086Z,21.52
2019-03-22T11:01:30.583Z,21.93
2019-03-22T11:06:41.796Z,24.70
2019-03-22T11:09:16.990Z,22.40
2019-03-22T11:11:51.002Z,22.98
2019-03-22T11:14:25.630Z,23.35
2019-03-22T11:17:00.071Z,23.07
2019-03-22T11:19:35.107Z,23.85
2019-03-22T11:22:10.286Z,22.70
2019-03-22T11:24:45.498Z,24.05
2019-03-22T11:27:22.011Z,22.82
2019-03-22T11:29:54.876Z,23.87
2019-03-22T11:32:28.861Z,22.45
2019-03-22T11:35:02.793Z,22.80
2019-03-22T11:37:36.329Z,27.67
2019-03-22T11:40:13.777Z,23.62
2019-03-22T11:42:47.666Z,22.87
2019-03-22T11:45:24.514Z,21.42
2019-03-22T11:48:00.557Z,23.27
2019-03-22T11:50:35.419Z,24.40
2019-03-22T11:53:09.430Z,22.98
2019-03-22T11:55:42.651Z,22.58
2019-03-22T11:58:16.514Z,23.47
2019-03-22T12:00:50.601Z,22.80
2019-03-22T12:03:23.903Z,23.15
2019-03-22T12:05:57.134Z,23.15
2019-03-22T12:08:30.282Z,23.85
2019-03-22T12:11:05.338Z,23.02
2019-03-22T12:13:40.400Z,23.05
2019-03-22T12:16:14.511Z,22.75
2019-03-22T12:18:50.456Z,23.95
2019-03-22T12:21:25.915Z,23.35
2019-03-22T12:24:00.829Z,23.20
2019-03-22T12:26:34.996Z,24.80
2019-03-22T12:29:10.596Z,22.73
2019-03-22T12:31:44.557Z,23.80
2019-03-22T12:34:18.451Z,23.60
2019-03-22T12:36:53.088Z,22.40
2019-03-22T12:39:28.944Z,23.45
2019-03-22T12:42:04.337Z,24.77
2019-03-22T12:44:40.016Z,23.22
2019-03-22T12:47:14.608Z,22.22
2019-03-22T12:49:48.725Z,20.75
2019-03-22T12:52:24.495Z,23.18
2019-03-22T12:54:59.709Z,22.45
2019-03-22T12:57:33.466Z,23.83
2019-03-22T13:00:09.297Z,22.95
2019-03-22T13:02:42.814Z,24.85
2019-03-22T13:05:17.280Z,22.55
2019-03-22T13:07:51.453Z,25.65
2019-03-22T13:10:25.318Z,23.42
2019-03-22T13:13:00.810Z,24.23
2019-03-22T13:15:35.758Z,22.75
2019-03-22T13:18:09.046Z,25.48
2019-03-22T13:20:43.670Z,24.30
2019-03-22T13:23:18.699Z,22.30
2019-03-22T13:25:52.573Z,24.27
2019-03-22T13:28:27.214Z,24.43
2019-03-22T13:31:02.449Z,23.77
2019-03-22T13:33:37.585Z,24.57
2019-03-22T13:36:12.348Z,24.37
2019-03-22T13:38:46.699Z,25.32
2019-03-22T13:41:22.177Z,25.25
2019-03-22T13:43:57.194Z,27.00
2019-03-22T13:46:39.951Z,25.23
2019-03-22T13:49:10.263Z,25.88
2019-03-22T13:51:45.830Z,25.55
2019-03-22T13:54:21.115Z,25.82
2019-03-22T13:56:55.259Z,25.17
2019-03-22T13:59:28.469Z,26.17
2019-03-22T14:02:02.572Z,24.85
2019-03-22T14:04:35.944Z,25.25
2019-03-22T14:07:10.513Z,23.73
2019-03-22T14:09:45.218Z,26.05
2019-03-22T14:12:19.841Z,24.67
2019-03-22T14:14:54.411Z,22.60
2019-03-22T14:17:29.392Z,22.93
2019-03-22T14:20:11.316Z,23.47
2019-03-22T14:22:41.103Z,23.40
2019-03-22T14:25:14.055Z,21.07
2019-03-22T14:27:48.202Z,16.93
2019-03-22T14:30:22.131Z,18.12
2019-03-22T14:32:56.654Z,16.80
2019-03-22T14:35:31.181Z,16.55
2019-03-22T14:38:06.094Z,17.25
2019-03-22T14:40:40.426Z,18.77
2019-03-22T14:43:15.655Z,18.65
2019-03-22T14:45:54.192Z,18.60
2019-03-22T14:48:26.880Z,20.92
2019-03-22T14:51:04.512Z,20.62
2019-03-22T14:53:39.568Z,20.20
2019-03-22T14:56:14.828Z,19.40
2019-03-22T14:58:49.856Z,19.73
2019-03-22T15:01:24.093Z,20.90
2019-03-22T15:03:59.422Z,19.75
2019-03-22T15:06:34.308Z,20.50
2019-03-22T15:09:11.369Z,21.25
2019-03-22T15:11:46.626Z,20.77
2019-03-22T15:14:52.123Z,20.62
2019-03-22T15:17:37.685Z,20.75
2019-03-22T15:20:48.960Z,19.35
2019-03-22T15:23:41.468Z,19.70
2019-03-22T15:26:37.661Z,20.40
2019-03-22T15:29:30.246Z,19.77
2019-03-22T15:32:23.580Z,19.10
2019-03-22T15:35:14.174Z,19.87
2019-03-22T15:38:10.404Z,18.27
2019-03-22T15:40:45.660Z,19.25
2019-03-22T15:43:20.685Z,19.35
2019-03-22T15:45:55.599Z,16.73
2019-03-22T15:48:31.071Z,17.70
2019-03-22T15:51:06.094Z,18.00
2019-03-22T15:53:40.747Z,18.62
2019-03-22T15:56:15.868Z,18.32
2019-03-22T15:58:50.690Z,17.57
2019-03-22T16:01:25.737Z,16.55
2019-03-22T16:04:00.211Z,18.60
2019-03-22T16:06:35.286Z,19.37
2019-03-22T16:09:10.586Z,19.17
2019-03-22T16:11:45.635Z,18.50
2019-03-22T16:14:20.705Z,17.52
2019-03-22T16:16:55.318Z,17.98
2019-03-22T16:19:30.279Z,20.97
2019-03-22T16:22:05.063Z,20.45
2019-03-22T16:24:39.940Z,18.90
2019-03-22T16:27:14.479Z,18.82
2019-03-22T16:29:49.233Z,18.62
2019-03-22T16:32:24.261Z,18.87
2019-03-22T16:34:59.228Z,20.65
2019-03-22T16:37:33.833Z,18.92
2019-03-22T16:40:09.262Z,20.80
2019-03-22T16:42:43.744Z,20.68
2019-03-22T16:45:35.182Z,20.17
2019-03-22T16:48:11.027Z,19.87
2019-03-22T16:50:45.666Z,20.88
2019-03-22T16:53:20.668Z,20.23
2019-03-22T16:55:56.698Z,21.10
2019-03-22T16:58:31.769Z,20.17
2019-03-22T17:01:07.509Z,21.40
2019-03-22T17:03:42.557Z,19.65
2019-03-22T17:06:17.770Z,20.90
2019-03-22T17:08:52.927Z,19.65
2019-03-22T17:11:27.961Z,27.80
2019-03-22T17:14:02.045Z,32.85
2019-03-22T17:16:37.338Z,31.50
2019-03-22T17:19:11.628Z,32.42
2019-03-22T17:21:46.667Z,30.90
2019-03-22T17:24:21.801Z,34.70
2019-03-22T17:26:56.217Z,51.35
2019-03-22T17:29:30.851Z,49.98
2019-03-22T17:32:05.079Z,51.77
2019-03-22T17:34:39.717Z,44.83
2019-03-22T17:37:14.434Z,40.08
2019-03-22T17:39:49.432Z,38.98
2019-03-22T17:42:24.565Z,43.95
2019-03-22T17:44:59.444Z,40.28
2019-03-22T17:47:33.741Z,47.58
2019-03-22T17:50:07.686Z,47.03
2019-03-22T17:52:43.816Z,46.83
2019-03-22T17:55:17.971Z,47.83
2019-03-22T17:57:53.879Z,43.85
2019-03-22T18:00:28.916Z,42.48
2019-03-22T18:03:03.534Z,46.45
2019-03-22T18:05:38.688Z,42.73
2019-03-22T18:08:13.407Z,40.03
2019-03-22T18:10:48.521Z,36.05
2019-03-22T18:13:23.144Z,34.38
2019-03-22T18:15:58.213Z,27.20
2019-03-22T18:18:32.934Z,24.35
2019-03-22T18:21:07.480Z,24.63
2019-03-22T18:23:42.372Z,24.25
2019-03-22T18:26:16.461Z,25.85
2019-03-22T18:28:50.744Z,30.15
2019-03-22T18:31:24.554Z,44.25
2019-03-22T18:33:59.173Z,54.83
2019-03-22T18:36:34.193Z,52.23
2019-03-22T18:39:10.315Z,47.40
2019-03-22T18:41:45.272Z,48.10
2019-03-22T18:44:19.684Z,83.17
2019-03-22T18:46:54.618Z,116.45
2019-03-22T18:49:29.656Z,115.12
2019-03-22T18:52:04.221Z,51.88
2019-03-22T18:54:39.236Z,43.98
2019-03-22T18:57:14.400Z,37.95
2019-03-22T18:59:48.871Z,36.17
2019-03-22T19:02:23.641Z,45.83
2019-03-22T19:04:58.458Z,42.05
2019-03-22T19:07:31.203Z,44.15
2019-03-22T19:10:04.435Z,49.50
2019-03-22T19:12:41.371Z,54.73
2019-03-22T19:15:15.654Z,58.92
2019-03-22T19:17:48.754Z,59.73
2019-03-22T19:20:28.224Z,56.77
2019-03-22T19:23:03.033Z,53.42
2019-03-22T19:25:36.917Z,54.35
2019-03-22T19:28:13.148Z,57.25
2019-03-22T19:30:47.028Z,56.63
2019-03-22T19:33:20.290Z,55.73
2019-03-22T19:35:54.023Z,57.78
2019-03-22T19:38:28.429Z,57.65
2019-03-22T19:41:01.245Z,63.60
2019-03-22T19:43:34.867Z,65.40
2019-03-22T19:46:09.393Z,67.90
2019-03-22T19:48:44.826Z,62.98
2019-03-22T19:51:19.419Z,67.67
2019-03-22T19:53:54.754Z,69.25
2019-03-22T19:56:29.415Z,80.80
2019-03-22T19:59:04.053Z,86.15
2019-03-22T20:01:38.289Z,77.40
2019-03-22T20:04:13.053Z,73.02
2019-03-22T20:06:47.725Z,69.77
2019-03-22T20:09:21.984Z,63.50
2019-03-22T20:11:56.972Z,61.08
2019-03-22T20:14:33.328Z,68.47
2019-03-22T20:17:07.606Z,69.65
2019-03-22T20:19:41.513Z,69.20
2019-03-22T20:22:15.555Z,63.95
2019-03-22T20:24:49.487Z,62.20
2019-03-22T20:27:23.640Z,67.42
2019-03-22T20:29:56.981Z,68.80
2019-03-22T20:32:33.943Z,66.75
2019-03-22T20:35:15.785Z,64.62
2019-03-22T20:37:42.374Z,61.88
2019-03-22T20:40:15.831Z,56.88
2019-03-22T20:42:50.851Z,63.00
2019-03-22T20:45:24.896Z,65.78
2019-03-22T20:47:59.368Z,64.90
2019-03-22T20:50:36.122Z,78.55
2019-03-22T20:53:09.107Z,80.47
2019-03-22T20:55:42.936Z,87.90
2019-03-22T20:58:16.758Z,86.00
2019-03-22T21:00:50.472Z,74.53
2019-03-22T21:03:25.417Z,73.92
2019-03-22T21:05:59.092Z,71.20
2019-03-22T21:08:31.974Z,59.95
2019-03-22T21:11:06.308Z,55.50
2019-03-22T21:13:39.788Z,54.03
2019-03-22T21:16:13.984Z,53.95
2019-03-22T21:18:47.885Z,55.20
2019-03-22T21:21:25.525Z,54.18
2019-03-22T21:23:58.174Z,56.65
2019-03-22T21:26:33.245Z,60.95
2019-03-22T21:29:06.925Z,59.67
2019-03-22T21:31:41.918Z,58.58
2019-03-22T21:34:15.124Z,62.43
2019-03-22T21:36:49.717Z,63.78
2019-03-22T21:39:24.459Z,63.68
2019-03-22T21:41:57.767Z,63.98
2019-03-22T21:44:35.904Z,65.92
2019-03-22T21:47:09.804Z,77.97
2019-03-22T21:49:46.039Z,134.65
2019-03-22T21:52:19.875Z,64.62
2019-03-22T21:54:53.674Z,64.58
2019-03-22T21:57:28.388Z,57.33
2019-03-22T22:00:01.527Z,53.17
2019-03-22T22:02:35.823Z,48.02
2019-03-22T22:05:09.544Z,42.10
2019-03-22T22:07:43.928Z,41.92
2019-03-22T22:10:19.499Z,40.88
2019-03-22T22:12:54.471Z,37.20
2019-03-22T22:15:28.969Z,40.63
2019-03-22T22:18:03.909Z,37.67
2019-03-22T22:20:38.551Z,38.35
2019-03-22T22:23:13.150Z,40.12
2019-03-22T22:25:48.085Z,36.98
2019-03-22T22:28:22.091Z,37.65
2019-03-22T22:30:57.133Z,38.13
2019-03-22T22:33:31.969Z,39.10
2019-03-22T22:36:06.570Z,39.15
2019-03-22T22:38:41.766Z,41.60
2019-03-22T22:41:16.760Z,38.78
2019-03-22T22:43:51.420Z,41.05
2019-03-22T22:46:26.629Z,41.80
2019-03-22T22:49:01.214Z,43.08
2019-03-22T22:51:36.063Z,44.30
2019-03-22T22:54:11.711Z,45.63
2019-03-22T22:56:47.037Z,45.63
2019-03-22T22:59:22.188Z,45.38
2019-03-22T23:01:57.586Z,43.00
2019-03-22T23:04:32.481Z,40.75
2019-03-22T23:07:07.610Z,39.05
2019-03-22T23:09:42.104Z,39.20
2019-03-22T23:12:17.677Z,38.10
2019-03-22T23:14:52.384Z,41.70
2019-03-22T23:17:26.819Z,39.63
2019-03-22T23:20:01.602Z,40.73
2019-03-22T23:22:36.373Z,40.40
2019-03-22T23:25:10.991Z,40.25
2019-03-22T23:27:45.537Z,39.48
2019-03-22T23:30:20.445Z,44.63
2019-03-22T23:32:56.117Z,48.40
2019-03-22T23:35:30.746Z,47.62
2019-03-22T23:38:06.001Z,49.38
2019-03-22T23:40:41.120Z,42.80
2019-03-22T23:43:16.175Z,40.23
2019-03-22T23:45:50.761Z,37.42
2019-03-22T23:48:25.503Z,39.05
2019-03-22T23:51:00.133Z,38.53
2019-03-22T23:53:34.968Z,36.10
2019-03-22T23:56:09.178Z,36.23
2019-03-22T23:58:43.170Z,37.70
